Zapata, TX

08:45 PM CDT am 27. März 2015 (GMT -0500)
Laredo International | | Change Station
CLOSE
Current Station
Flughafen
Location: Laredo,
Höhe: 509 ft
Wetterstationen in der Umgebung

Höhe 509 ft 27.54 °N, 99.46 °W | Updated 49 minutes ago

Heiter
Heiter
73 °F
gefühlte 73 °F
N
5
Wind Wechselnd Wind aus Ost-Südost

Heute
Max. -- | schwach -- °F
--% Regenrisiko
Gestern
Max. -- | schwach -- °F
Precip. -- inch
7:33 AM 7:51 PM
Erstes Viertel, 57% visible
Druck 30.13 inch
Sichtweite 10.0 Meilen
Wolken Heiter
Taupunkt 40 °F
Feuchtigkeit 30%
Regen 0.00 inch
Schneehöhe Nicht verfügbar..
UV 0 von 12
Pollen 10.60 von 12
Luftqualität Nicht verfügbar..
Flu Activity Nicht verfügbar..
METAR KLRD 280056Z 12004KT 10SM CLR 23/04 A3015 RMK AO2 T02270044 SLP202

More Conditions Fewer Conditions

Druck 30.13 inch
Sichtweite 10.0 Meilen
Wolken Heiter
Taupunkt 40 °F
Feuchtigkeit 30%
Regen 0.00 inch
Schneehöhe Nicht verfügbar..
UV 0 von 12
Pollen 10.60 von 12
Luftqualität Nicht verfügbar..
Flu Activity Nicht verfügbar..
METAR KLRD 280056Z 12004KT 10SM CLR 23/04 A3015 RMK AO2 T02270044 SLP202

More Conditions Fewer Conditions

10-Day Weather Forecast

Almanac

Astronomie

Mar. 27, 2015 Aufgang Untergang
Genaue Zeit
Bürgerliche Dämmerung
Nautische Dämmerung
Astronomische Dämmerung
Mond
Länge des sichtbaren Lichts
Tageslänge
Tomorrow will be .
, % of the Moon is Illuminated

Heutige Rekorde

State Highs State Lows

Community

WunderPhotos

Upload Photos

1,808,911 Fotos hochgeladen!

WunderBlogs® & News

Nearby

Luftqualität

  Luftqualität LQ Index Schadstoff
Not available.

Schneehöhe

Station Depth Höhe

Erdbebenaktivität

Stadt Distance Mag. Time & Date
Minimum magnitude displayed is 2.5.

küstennahe Wassertemperaturen

Ort Temperatur

Stations

Wetterstationen in der Umgebung

Stationsstandort Temp. Windchill Taupunkt Feuchtigkeit Wind Precip. Höhe Aktualisiert Art